Time;durP1;ratioP1;P1;durP2;ratioP2;P2;SDS_P1;SDS_P2;PMS_P1;PMS_P2;Temp;Humidity;BMP_temperature;BMP_pressure;BME280_temperature;BME280_humidity;BME280_pressure;Samples;Min_cycle;Max_cycle;Signal;HPM_P1;HPM_P2
2024/03/31 00:02:04;;;;;;;17.73;12.25;;;;;;;1.65;100.00;100116.69;5069374;28;20091;-78
2024/03/31 00:04:29;;;;;;;19.33;13.02;;;;;;;1.66;100.00;100125.41;5069906;28;20079;-78
2024/03/31 00:06:54;;;;;;;16.75;11.85;;;;;;;1.65;100.00;100118.47;5069564;28;20086;-78
2024/03/31 00:09:21;;;;;;;17.80;12.00;;;;;;;1.62;100.00;100119.50;5067972;28;20091;-77
2024/03/31 00:11:46;;;;;;;20.23;13.38;;;;;;;1.62;100.00;100116.88;5069269;28;20040;-78
2024/03/31 00:14:12;;;;;;;20.10;12.63;;;;;;;1.59;100.00;100107.44;5069283;28;20170;-78
2024/03/31 00:16:37;;;;;;;23.10;15.38;;;;;;;1.61;100.00;100109.94;5068347;28;20032;-78
2024/03/31 00:19:02;;;;;;;20.55;13.52;;;;;;;1.62;100.00;100106.41;5069266;28;20036;-79
2024/03/31 00:21:28;;;;;;;28.63;14.50;;;;;;;1.65;100.00;100102.75;5069365;28;20039;-78
2024/03/31 00:23:53;;;;;;;36.70;20.35;;;;;;;1.65;100.00;100098.31;5069615;28;20033;-78
2024/03/31 00:26:18;;;;;;;31.00;17.90;;;;;;;1.73;100.00;100106.56;5069101;28;20045;-77
2024/03/31 00:28:46;;;;;;;33.65;19.08;;;;;;;1.80;100.00;100101.72;5069421;28;20036;-78
2024/03/31 00:31:12;;;;;;;34.35;17.50;;;;;;;1.88;100.00;100102.06;5068969;28;20036;-78
2024/03/31 00:33:37;;;;;;;28.13;16.27;;;;;;;1.94;100.00;100101.66;5072402;28;20024;-79
2024/03/31 00:36:05;;;;;;;41.95;22.25;;;;;;;2.01;100.00;100091.59;5073111;28;20056;-80
2024/03/31 00:38:30;;;;;;;53.67;23.75;;;;;;;2.08;100.00;100089.41;5072767;28;20346;-78
2024/03/31 00:40:56;;;;;;;54.83;25.55;;;;;;;2.15;100.00;100087.19;5072751;28;20043;-78
2024/03/31 00:43:21;;;;;;;64.70;28.00;;;;;;;2.16;100.00;100075.78;5072406;28;20181;-79
2024/03/31 00:45:47;;;;;;;88.60;36.88;;;;;;;2.17;100.00;100088.78;5071597;28;20557;-78
2024/03/31 00:48:12;;;;;;;83.10;34.83;;;;;;;2.15;100.00;100077.56;5072076;28;20078;-78
2024/03/31 00:50:37;;;;;;;72.32;31.50;;;;;;;2.14;100.00;100075.03;5072674;28;20445;-78
2024/03/31 00:53:03;;;;;;;79.65;33.03;;;;;;;2.11;100.00;100074.28;5072745;28;20109;-78
2024/03/31 00:55:28;;;;;;;74.85;31.63;;;;;;;2.09;100.00;100065.69;5072107;28;20453;-78
2024/03/31 00:57:54;;;;;;;58.50;28.80;;;;;;;2.05;100.00;100058.97;5071223;28;20386;-78
2024/03/31 01:00:20;;;;;;;59.38;28.73;;;;;;;2.02;100.00;100053.91;5070698;28;20123;-79
2024/03/31 01:02:46;;;;;;;72.45;29.88;;;;;;;2.01;100.00;100054.03;5071006;28;20032;-79
2024/03/31 01:05:12;;;;;;;63.15;28.45;;;;;;;1.98;100.00;100049.00;5072124;28;20043;-78
2024/03/31 01:07:37;;;;;;;58.30;28.13;;;;;;;1.95;100.00;100047.41;5071680;28;20053;-78
2024/03/31 01:10:03;;;;;;;116.25;31.05;;;;;;;1.93;100.00;100049.28;5072268;28;20032;-78
2024/03/31 01:12:30;;;;;;;118.30;26.48;;;;;;;1.90;100.00;100055.59;5072131;28;20094;-78
2024/03/31 01:14:56;;;;;;;51.10;24.20;;;;;;;1.91;100.00;100059.03;5072231;28;20047;-78
2024/03/31 01:17:21;;;;;;;46.10;23.42;;;;;;;1.96;100.00;100061.34;5071756;28;20037;-79
2024/03/31 01:19:46;;;;;;;40.00;21.33;;;;;;;2.02;100.00;100063.59;5072026;28;20075;-78
2024/03/31 01:22:12;;;;;;;71.68;22.85;;;;;;;2.11;100.00;100070.84;5071729;28;20024;-79
2024/03/31 01:24:37;;;;;;;48.47;20.65;;;;;;;2.20;100.00;100072.81;5071875;28;20089;-78
2024/03/31 01:27:03;;;;;;;34.10;20.27;;;;;;;2.30;100.00;100083.56;5071946;28;20036;-79
2024/03/31 01:29:28;;;;;;;128.15;23.30;;;;;;;2.42;100.00;100081.88;5071487;28;20111;-79
2024/03/31 01:31:53;;;;;;;38.67;21.77;;;;;;;2.53;100.00;100086.38;5071866;28;20047;-78
2024/03/31 01:34:19;;;;;;;140.25;23.02;;;;;;;2.61;100.00;100089.31;5070142;28;20056;-79
2024/03/31 01:36:44;;;;;;;31.85;20.63;;;;;;;2.65;100.00;100085.53;5070359;28;20044;-78
2024/03/31 01:39:09;;;;;;;44.78;20.50;;;;;;;2.69;100.00;100088.78;5071811;28;20193;-78
2024/03/31 01:41:35;;;;;;;30.08;20.00;;;;;;;2.72;100.00;100096.47;5071630;28;20388;-79
2024/03/31 01:44:00;;;;;;;60.03;21.90;;;;;;;2.73;100.00;100100.75;5071674;28;20029;-78
2024/03/31 01:46:25;;;;;;;52.58;20.20;;;;;;;2.73;100.00;100098.13;5071213;28;20135;-79
2024/03/31 01:48:51;;;;;;;34.22;20.63;;;;;;;2.75;100.00;100093.63;5071344;28;20432;-78
2024/03/31 01:51:16;;;;;;;32.72;19.15;;;;;;;2.74;100.00;100082.25;5071104;28;20040;-78
2024/03/31 01:53:41;;;;;;;31.67;21.23;;;;;;;2.74;100.00;100084.06;5071578;28;20033;-78
2024/03/31 01:56:07;;;;;;;31.50;20.08;;;;;;;2.72;100.00;100084.16;5071755;28;20030;-78
2024/03/31 01:58:32;;;;;;;26.77;18.23;;;;;;;2.69;100.00;100089.63;5070768;28;20060;-78
2024/03/31 02:00:57;;;;;;;27.02;18.85;;;;;;;2.67;100.00;100094.13;5071356;28;20025;-79
2024/03/31 02:03:23;;;;;;;35.35;20.52;;;;;;;2.62;100.00;100094.47;5070912;28;20025;-79
2024/03/31 02:05:48;;;;;;;80.70;22.23;;;;;;;2.61;100.00;100105.06;5071010;28;20029;-78
2024/03/31 02:08:13;;;;;;;94.85;22.73;;;;;;;2.59;100.00;100107.81;5071045;28;20060;-79
2024/03/31 02:10:38;;;;;;;65.05;24.30;;;;;;;2.56;100.00;100102.75;5070563;28;20349;-79
2024/03/31 02:13:04;;;;;;;42.15;23.30;;;;;;;2.57;100.00;100108.88;5071062;28;20032;-78
2024/03/31 02:15:29;;;;;;;50.60;25.20;;;;;;;2.59;100.00;100113.06;5070577;28;20097;-78
2024/03/31 02:17:55;;;;;;;48.97;23.98;;;;;;;2.65;100.00;100112.63;5071149;28;20468;-79
2024/03/31 02:20:20;;;;;;;35.72;22.70;;;;;;;2.69;100.00;100107.16;5069064;28;20444;-79
2024/03/31 02:22:45;;;;;;;41.05;22.42;;;;;;;2.71;100.00;100108.75;5069488;28;20141;-79
2024/03/31 02:25:10;;;;;;;39.05;23.23;;;;;;;2.77;100.00;100108.31;5070538;28;20060;-78
2024/03/31 02:27:36;;;;;;;36.25;22.30;;;;;;;2.81;100.00;100099.28;5070089;28;20028;-79
2024/03/31 02:30:01;;;;;;;44.15;24.55;;;;;;;2.85;100.00;100089.38;5070459;28;20056;-79
2024/03/31 02:32:27;;;;;;;41.53;24.15;;;;;;;2.91;100.00;100082.88;5070163;28;20036;-79
2024/03/31 02:34:52;;;;;;;72.47;25.75;;;;;;;2.95;100.00;100087.78;5070327;28;20447;-79
2024/03/31 02:37:17;;;;;;;42.85;24.63;;;;;;;3.03;100.00;100089.03;5070572;28;20429;-79
2024/03/31 02:39:43;;;;;;;44.33;25.75;;;;;;;3.04;100.00;100078.41;5068792;28;20101;-79
2024/03/31 02:42:08;;;;;;;44.17;25.23;;;;;;;3.07;100.00;100072.94;5068839;28;20119;-78
2024/03/31 02:44:33;;;;;;;41.90;24.48;;;;;;;3.07;100.00;100065.06;5070052;28;20071;-79
2024/03/31 02:46:59;;;;;;;42.60;25.27;;;;;;;3.11;100.00;100074.41;5070377;28;20039;-78
2024/03/31 02:49:24;;;;;;;44.25;25.30;;;;;;;3.15;100.00;100075.00;5069478;28;20040;-79
2024/03/31 02:51:50;;;;;;;43.25;25.35;;;;;;;3.15;100.00;100070.63;5070276;28;20129;-79
2024/03/31 02:54:15;;;;;;;39.88;25.65;;;;;;;3.18;100.00;100070.41;5069889;28;20033;-79
2024/03/31 02:56:41;;;;;;;42.22;25.00;;;;;;;3.20;100.00;100058.94;5069374;28;20044;-79
2024/03/31 02:59:06;;;;;;;42.47;24.27;;;;;;;3.22;100.00;100062.28;5070126;28;20069;-79
2024/03/31 03:01:31;;;;;;;42.10;24.45;;;;;;;3.27;100.00;100065.41;5068403;28;20059;-79
2024/03/31 03:03:56;;;;;;;36.53;23.42;;;;;;;3.29;100.00;100058.25;5070242;28;20381;-79
2024/03/31 03:06:22;;;;;;;44.47;23.30;;;;;;;3.31;100.00;100051.09;5070299;28;20491;-79
2024/03/31 03:08:47;;;;;;;46.55;24.40;;;;;;;3.33;100.00;100047.41;5069931;28;20044;-79
2024/03/31 03:11:12;;;;;;;46.15;24.88;;;;;;;3.35;100.00;100042.88;5070223;28;20074;-79
2024/03/31 03:13:40;;;;;;;50.15;25.77;;;;;;;3.40;100.00;100037.25;5069960;28;20106;-79
2024/03/31 03:16:05;;;;;;;51.80;26.23;;;;;;;3.47;100.00;100032.41;5070368;28;20182;-79
2024/03/31 03:18:31;;;;;;;57.53;26.70;;;;;;;3.51;100.00;100032.06;5069940;28;20202;-80
2024/03/31 03:20:57;;;;;;;61.28;26.15;;;;;;;3.58;100.00;100037.69;5070288;28;20032;-80
2024/03/31 03:23:23;;;;;;;66.22;28.02;;;;;;;3.67;100.00;100039.69;5069936;28;20503;-79
2024/03/31 03:25:55;;;;;;;72.82;27.48;;;;;;;3.73;100.00;100034.91;5069692;28;20032;-79
2024/03/31 03:28:20;;;;;;;68.57;27.10;;;;;;;3.83;100.00;100046.41;5070165;28;20414;-79
2024/03/31 03:30:47;;;;;;;65.40;27.67;;;;;;;3.89;100.00;100048.56;5070001;28;20110;-79
2024/03/31 03:33:13;;;;;;;65.75;26.65;;;;;;;3.97;100.00;100050.63;5068722;28;20032;-78
2024/03/31 03:35:38;;;;;;;66.00;28.05;;;;;;;4.03;100.00;100050.16;5069769;28;20106;-79
2024/03/31 03:38:03;;;;;;;60.95;27.40;;;;;;;4.04;100.00;100031.63;5070028;28;20449;-80
2024/03/31 03:40:29;;;;;;;64.75;27.73;;;;;;;4.10;100.00;100042.66;5069949;28;20041;-80
2024/03/31 03:42:54;;;;;;;62.78;26.67;;;;;;;4.14;100.00;100052.81;5069851;28;20056;-78
2024/03/31 03:45:19;;;;;;;58.08;26.17;;;;;;;4.16;100.00;100044.81;5069677;28;20032;-78
2024/03/31 03:47:45;;;;;;;62.00;25.92;;;;;;;4.17;100.00;100034.16;5070035;28;20082;-79
2024/03/31 03:50:10;;;;;;;63.33;25.92;;;;;;;4.20;100.00;100025.19;5069887;28;20063;-79
2024/03/31 03:52:37;;;;;;;64.43;26.17;;;;;;;4.21;100.00;100040.03;5069526;28;20078;-79
2024/03/31 03:55:03;;;;;;;59.13;24.63;;;;;;;4.24;100.00;100029.28;5070013;28;20112;-79
2024/03/31 03:57:28;;;;;;;61.75;24.27;;;;;;;4.23;100.00;100031.06;5070049;28;20043;-79
2024/03/31 03:59:54;;;;;;;61.10;23.85;;;;;;;4.25;100.00;100025.66;5069617;28;20032;-80
2024/03/31 04:02:19;;;;;;;58.67;22.45;;;;;;;4.22;100.00;100018.88;5069731;28;20033;-79
2024/03/31 04:04:44;;;;;;;63.10;23.52;;;;;;;4.22;100.00;100021.50;5069187;28;20507;-79
2024/03/31 04:07:10;;;;;;;64.18;22.90;;;;;;;4.21;100.00;100018.94;5070727;28;20110;-79
2024/03/31 04:09:35;;;;;;;58.22;21.73;;;;;;;4.23;100.00;100022.31;5072989;28;20071;-79
2024/03/31 04:12:00;;;;;;;58.05;21.92;;;;;;;4.24;100.00;100013.47;5073375;28;20105;-79
2024/03/31 04:14:26;;;;;;;59.75;21.60;;;;;;;4.27;100.00;100013.25;5073423;28;20029;-80
2024/03/31 04:16:51;;;;;;;57.92;21.85;;;;;;;4.28;100.00;100011.44;5072632;28;20036;-78
2024/03/31 04:19:16;;;;;;;61.03;21.70;;;;;;;4.31;100.00;100003.28;5073463;28;20048;-78
2024/03/31 04:21:42;;;;;;;74.15;23.05;;;;;;;4.30;100.00;99997.19;5072809;28;20036;-79
2024/03/31 04:24:07;;;;;;;61.30;21.70;;;;;;;4.27;100.00;99992.16;5073575;28;20033;-79
2024/03/31 04:26:33;;;;;;;58.83;20.75;;;;;;;4.24;100.00;99985.34;5073258;28;20427;-79
2024/03/31 04:28:58;;;;;;;51.10;20.20;;;;;;;4.21;100.00;99985.56;5072467;28;20360;-79
2024/03/31 04:31:24;;;;;;;55.33;20.52;;;;;;;4.16;100.00;99987.72;5073091;28;20044;-79
2024/03/31 04:33:49;;;;;;;47.30;19.75;;;;;;;4.11;100.00;99986.41;5070922;28;20036;-79
2024/03/31 04:36:15;;;;;;;44.78;18.58;;;;;;;4.05;100.00;99978.03;5072972;28;20107;-79
2024/03/31 04:38:41;;;;;;;41.63;18.33;;;;;;;4.07;100.00;99980.53;5072953;28;20126;-78
2024/03/31 04:41:07;;;;;;;43.55;17.85;;;;;;;4.05;100.00;99982.44;5073280;28;20041;-78
2024/03/31 04:43:33;;;;;;;45.08;18.80;;;;;;;4.05;100.00;99990.34;5072938;28;20115;-79
2024/03/31 04:46:03;;;;;;;50.88;19.55;;;;;;;4.04;100.00;99991.31;5072721;28;20132;-78
2024/03/31 04:48:28;;;;;;;51.65;19.58;;;;;;;4.05;100.00;99993.81;5073001;28;20033;-78
2024/03/31 04:50:53;;;;;;;48.10;18.00;;;;;;;4.09;100.00;99983.91;5071691;28;20029;-78
2024/03/31 04:53:19;;;;;;;41.88;18.08;;;;;;;4.13;100.00;99995.03;5072707;28;20484;-79
2024/03/31 04:55:44;;;;;;;46.40;18.73;;;;;;;4.15;100.00;99998.38;5072307;28;20118;-78
2024/03/31 04:58:10;;;;;;;46.75;18.73;;;;;;;4.18;100.00;99990.22;5072944;28;20163;-78
2024/03/31 05:00:35;;;;;;;49.17;18.80;;;;;;;4.19;100.00;99997.19;5072813;28;20069;-79
2024/03/31 05:03:00;;;;;;;50.10;20.25;;;;;;;4.19;100.00;99995.38;5072426;28;20040;-79
2024/03/31 05:05:26;;;;;;;45.15;18.73;;;;;;;4.22;100.00;100004.84;5072814;28;20090;-78
2024/03/31 05:07:51;;;;;;;47.40;18.35;;;;;;;4.21;100.00;100011.06;5072027;28;20044;-79
2024/03/31 05:10:17;;;;;;;47.45;18.63;;;;;;;4.22;100.00;100008.34;5072146;28;20032;-78
2024/03/31 05:12:42;;;;;;;44.55;17.67;;;;;;;4.26;100.00;100013.34;5072258;28;20055;-79
2024/03/31 05:15:07;;;;;;;41.75;18.67;;;;;;;4.29;100.00;100006.03;5072447;28;20530;-79
2024/03/31 05:17:33;;;;;;;44.50;17.98;;;;;;;4.33;100.00;100009.28;5072248;28;20040;-79
2024/03/31 05:19:58;;;;;;;44.10;17.98;;;;;;;4.37;100.00;100011.56;5071548;28;20051;-79
2024/03/31 05:22:25;;;;;;;53.78;18.77;;;;;;;4.40;100.00;100013.09;5072055;28;20530;-79
2024/03/31 05:24:51;;;;;;;40.40;18.08;;;;;;;4.44;100.00;100009.28;5071962;28;20081;-79
2024/03/31 05:27:16;;;;;;;44.38;17.88;;;;;;;4.49;100.00;100009.75;5072220;28;20037;-79
2024/03/31 05:29:41;;;;;;;40.72;18.15;;;;;;;4.53;100.00;100010.38;5070732;28;20368;-79
2024/03/31 05:32:06;;;;;;;42.33;18.42;;;;;;;4.58;100.00;100006.41;5071876;28;20414;-79
2024/03/31 05:34:32;;;;;;;48.55;18.73;;;;;;;4.61;100.00;99993.94;5071782;28;20141;-79
2024/03/31 05:36:57;;;;;;;49.53;18.55;;;;;;;4.63;100.00;99994.66;5071701;28;20031;-79
2024/03/31 05:39:22;;;;;;;45.00;18.55;;;;;;;4.64;100.00;99991.06;5072046;28;20043;-79
2024/03/31 05:41:48;;;;;;;50.80;19.63;;;;;;;4.68;100.00;99982.78;5071422;28;20048;-79
2024/03/31 05:44:13;;;;;;;45.70;18.92;;;;;;;4.72;100.00;99980.78;5072078;28;20109;-79
2024/03/31 05:46:38;;;;;;;53.08;19.70;;;;;;;4.78;100.00;99975.00;5070340;28;20041;-79
2024/03/31 05:49:04;;;;;;;49.33;20.10;;;;;;;4.85;100.00;99986.75;5071371;28;20024;-78
2024/03/31 05:51:30;;;;;;;51.38;19.80;;;;;;;4.88;100.00;99990.91;5070461;28;20428;-79
2024/03/31 05:53:55;;;;;;;48.17;18.80;;;;;;;4.95;100.00;99986.81;5070924;28;20040;-78
2024/03/31 05:56:21;;;;;;;52.95;19.90;;;;;;;5.01;100.00;99982.84;5070172;28;20036;-79
2024/03/31 05:58:46;;;;;;;53.08;20.40;;;;;;;5.06;100.00;99976.25;5071627;28;20032;-79
2024/03/31 06:01:11;;;;;;;46.53;18.95;;;;;;;5.12;100.00;99977.56;5069703;28;20044;-78
2024/03/31 06:03:36;;;;;;;47.42;19.23;;;;;;;5.16;100.00;99976.31;5069982;28;20142;-79
2024/03/31 06:06:02;;;;;;;48.70;19.40;;;;;;;5.22;100.00;99978.47;5071179;28;20038;-78
2024/03/31 06:08:27;;;;;;;51.25;19.33;;;;;;;5.26;100.00;99976.41;5070844;28;20053;-79
2024/03/31 06:10:53;;;;;;;51.70;18.98;;;;;;;5.27;100.00;99968.38;5070994;28;20506;-79
2024/03/31 06:13:18;;;;;;;47.88;18.63;;;;;;;5.32;100.00;99972.44;5070995;28;20029;-79
2024/03/31 06:15:44;;;;;;;49.03;17.90;;;;;;;5.34;100.00;99962.59;5071568;28;20433;-79
2024/03/31 06:18:10;;;;;;;51.00;18.85;;;;;;;5.35;100.00;99959.84;5070782;28;20274;-79
2024/03/31 06:20:38;;;;;;;49.00;18.60;;;;;;;5.39;100.00;99960.41;5071231;28;20092;-79
2024/03/31 06:23:03;;;;;;;53.92;19.65;;;;;;;5.40;100.00;99962.91;5071055;28;20102;-80
2024/03/31 06:25:29;;;;;;;47.40;18.30;;;;;;;5.41;100.00;99966.41;5071060;28;20055;-79
2024/03/31 06:27:54;;;;;;;51.33;18.23;;;;;;;5.40;100.00;99962.09;5070670;28;20357;-79
2024/03/31 06:30:19;;;;;;;43.45;18.00;;;;;;;5.41;100.00;99966.41;5070055;28;20139;-79
2024/03/31 06:32:45;;;;;;;43.92;17.42;;;;;;;5.41;100.00;99963.78;5070810;28;20444;-79
2024/03/31 06:35:10;;;;;;;45.03;18.67;;;;;;;5.42;100.00;99962.78;5070445;28;20032;-80
2024/03/31 06:37:35;;;;;;;50.70;21.52;;;;;;;5.42;100.00;99961.00;5069181;28;20032;-79
2024/03/31 06:40:01;;;;;;;47.92;19.00;;;;;;;5.44;100.00;99971.44;5070374;28;20033;-79
2024/03/31 06:42:26;;;;;;;52.97;18.38;;;;;;;5.45;100.00;99965.19;5070732;28;20137;-80
2024/03/31 06:44:51;;;;;;;44.90;16.83;;;;;;;5.47;100.00;99965.91;5069268;28;20599;-79
2024/03/31 06:47:17;;;;;;;52.15;19.85;;;;;;;5.50;100.00;99970.91;5068773;28;20441;-79
2024/03/31 06:49:42;;;;;;;42.28;17.10;;;;;;;5.53;100.00;99969.84;5069012;28;20112;-80
2024/03/31 06:52:08;;;;;;;53.47;17.25;;;;;;;5.53;100.00;99967.19;5069997;28;20036;-80
2024/03/31 06:54:33;;;;;;;43.70;16.45;;;;;;;5.54;100.00;99963.56;5070482;28;20073;-80
2024/03/31 06:56:59;;;;;;;42.00;17.38;;;;;;;5.54;100.00;99960.94;5068525;28;20036;-80
2024/03/31 06:59:24;;;;;;;50.40;17.83;;;;;;;5.57;100.00;99968.59;5070193;28;20029;-81
2024/03/31 07:01:49;;;;;;;43.20;16.33;;;;;;;5.59;100.00;99962.22;5070387;28;20540;-81
2024/03/31 07:04:15;;;;;;;44.83;16.48;;;;;;;5.62;100.00;99959.31;5069983;28;20028;-79
2024/03/31 07:06:41;;;;;;;43.33;17.08;;;;;;;5.62;100.00;99961.16;5070172;28;20032;-80
2024/03/31 07:09:06;;;;;;;45.67;17.38;;;;;;;5.65;100.00;99955.59;5069928;28;20162;-79
2024/03/31 07:11:33;;;;;;;44.95;17.15;;;;;;;5.65;100.00;99956.44;5070374;28;20035;-79
2024/03/31 07:13:59;;;;;;;47.20;17.60;;;;;;;5.69;100.00;99945.63;5068278;28;20037;-78
2024/03/31 07:16:25;;;;;;;47.65;17.25;;;;;;;5.72;100.00;99953.28;5069996;28;20036;-79
2024/03/31 07:18:50;;;;;;;44.88;17.33;;;;;;;5.77;100.00;99943.19;5070002;28;20064;-79
2024/03/31 07:21:15;;;;;;;51.13;17.98;;;;;;;5.83;100.00;99942.66;5069313;28;20032;-79
2024/03/31 07:23:44;;;;;;;50.63;17.83;;;;;;;5.91;100.00;99939.34;5069890;28;20380;-79
2024/03/31 07:26:09;;;;;;;47.75;17.98;;;;;;;6.00;100.00;99936.81;5069706;28;20074;-78
2024/03/31 07:28:34;;;;;;;51.55;18.13;;;;;;;6.12;100.00;99934.91;5070033;28;20075;-78
2024/03/31 07:31:00;;;;;;;44.80;17.55;;;;;;;6.20;100.00;99936.91;5068444;28;20036;-79
2024/03/31 07:33:25;;;;;;;39.33;16.88;;;;;;;6.27;100.00;99924.84;5068604;28;20058;-78
2024/03/31 07:35:52;;;;;;;43.25;17.98;;;;;;;6.37;100.00;99924.84;5070222;28;20056;-75
2024/03/31 07:38:18;;;;;;;46.67;20.33;;;;;;;6.46;100.00;99920.56;5069351;28;20033;-75
2024/03/31 07:40:43;;;;;;;39.25;17.73;;;;;;;6.55;100.00;99911.00;5069948;28;20078;-76
2024/03/31 07:43:09;;;;;;;42.75;16.65;;;;;;;6.63;100.00;99914.63;5073552;28;20417;-77
2024/03/31 07:45:34;;;;;;;41.67;16.88;;;;;;;6.68;100.00;99907.13;5073851;28;20353;-78
2024/03/31 07:48:00;;;;;;;38.17;16.27;;;;;;;6.75;100.00;99906.56;5073459;28;20043;-78
2024/03/31 07:50:25;;;;;;;38.92;17.08;;;;;;;6.77;100.00;99908.09;5073155;28;20101;-80
2024/03/31 07:52:50;;;;;;;39.08;16.27;;;;;;;6.80;100.00;99915.75;5072450;28;20417;-79
2024/03/31 07:55:16;;;;;;;35.47;15.80;;;;;;;6.73;100.00;99905.88;5072981;28;20243;-79
2024/03/31 07:57:41;;;;;;;34.30;16.13;;;;;;;6.75;100.00;99902.13;5073435;28;20469;-79
2024/03/31 08:00:07;;;;;;;35.83;16.38;;;;;;;6.81;100.00;99904.22;5073517;28;20369;-79
2024/03/31 08:02:32;;;;;;;40.40;16.83;;;;;;;6.88;100.00;99905.34;5073801;28;20342;-79
2024/03/31 08:04:57;;;;;;;44.03;15.80;;;;;;;6.99;100.00;99911.47;5073809;28;20037;-78
2024/03/31 08:07:23;;;;;;;42.17;17.83;;;;;;;7.08;100.00;99913.28;5071698;28;20369;-78
2024/03/31 08:09:48;;;;;;;36.42;17.70;;;;;;;7.09;100.00;99904.38;5073327;28;20027;-79
2024/03/31 08:12:14;;;;;;;45.05;18.63;;;;;;;7.26;100.00;99908.13;5073337;28;20032;-78
2024/03/31 08:14:39;;;;;;;39.83;16.88;;;;;;;7.49;100.00;99890.13;5073463;28;20110;-78
2024/03/31 08:17:04;;;;;;;42.20;17.23;;;;;;;7.83;100.00;99892.28;5073645;28;20067;-79
2024/03/31 08:19:29;;;;;;;45.63;18.60;;;;;;;8.25;100.00;99881.22;5073095;28;20067;-76
2024/03/31 08:21:55;;;;;;;36.25;17.50;;;;;;;8.55;100.00;99883.75;5073238;28;20425;-79
2024/03/31 08:24:20;;;;;;;38.97;17.83;;;;;;;8.55;100.00;99881.91;5071577;28;20112;-78
2024/03/31 08:26:46;;;;;;;34.28;17.95;;;;;;;8.62;100.00;99877.69;5071903;28;20040;-77
2024/03/31 08:29:11;;;;;;;32.17;16.35;;;;;;;8.67;100.00;99868.44;5071351;28;20112;-77
2024/03/31 08:31:36;;;;;;;29.55;16.63;;;;;;;8.91;100.00;99871.34;5073119;28;20063;-79
2024/03/31 08:34:02;;;;;;;30.77;15.98;;;;;;;9.10;100.00;99874.81;5073039;28;20472;-78
2024/03/31 08:36:27;;;;;;;24.05;16.05;;;;;;;9.44;100.00;99882.88;5072690;28;20438;-78
2024/03/31 08:38:53;;;;;;;27.35;16.73;;;;;;;9.33;100.00;99885.78;5073386;28;20059;-79
2024/03/31 08:41:39;;;;;;;25.30;15.65;;;;;;;9.34;100.00;99887.44;5072817;28;20073;-78
2024/03/31 08:44:06;;;;;;;28.48;16.98;;;;;;;9.24;100.00;99878.72;5072862;28;20107;-76
2024/03/31 08:46:32;;;;;;;25.45;16.55;;;;;;;9.25;100.00;99875.94;5072301;28;20425;-76
2024/03/31 08:48:58;;;;;;;23.52;16.42;;;;;;;9.09;100.00;99874.00;5073170;28;20130;-76
2024/03/31 08:51:23;;;;;;;23.73;16.35;;;;;;;9.03;100.00;99863.97;5072670;28;20024;-76
2024/03/31 08:53:51;;;;;;;26.63;16.98;;;;;;;9.05;100.00;99871.81;5072301;28;20466;-78
2024/03/31 08:56:17;;;;;;;26.42;17.40;;;;;;;8.95;100.00;99870.03;5072493;28;20124;-77
2024/03/31 08:58:42;;;;;;;25.83;16.85;;;;;;;8.96;100.00;99854.97;5068101;28;20119;-78
2024/03/31 09:01:13;;;;;;;26.15;17.02;;;;;;;9.11;100.00;99850.78;5070069;28;20074;-78
2024/03/31 09:03:39;;;;;;;25.15;16.80;;;;;;;9.14;100.00;99849.66;5070139;28;20128;-79
2024/03/31 09:06:04;;;;;;;24.45;17.17;;;;;;;9.06;100.00;99857.53;5070072;28;20467;-76
2024/03/31 09:08:30;;;;;;;27.23;17.20;;;;;;;9.10;100.00;99853.59;5067548;28;20162;-76
2024/03/31 09:10:55;;;;;;;25.48;17.52;;;;;;;9.26;100.00;99844.94;5069425;28;20396;-75
2024/03/31 09:13:20;;;;;;;27.02;16.65;;;;;;;9.41;100.00;99838.06;5069278;28;20077;-76
2024/03/31 09:15:45;;;;;;;23.20;16.42;;;;;;;9.33;100.00;99837.97;5069633;28;20028;-78
2024/03/31 09:18:11;;;;;;;24.98;16.83;;;;;;;9.25;100.00;99837.94;5069548;28;20048;-78
2024/03/31 09:20:36;;;;;;;30.52;20.30;;;;;;;9.29;100.00;99836.66;5069492;28;20106;-77
2024/03/31 09:23:02;;;;;;;25.67;17.85;;;;;;;9.28;100.00;99832.31;5068003;28;20078;-77
2024/03/31 09:25:28;;;;;;;25.10;17.83;;;;;;;9.46;100.00;99832.28;5069212;28;20032;-78
2024/03/31 09:27:54;;;;;;;24.90;18.50;;;;;;;9.63;100.00;99831.38;5068063;28;20055;-77
2024/03/31 09:30:23;;;;;;;25.35;17.58;;;;;;;9.85;100.00;99818.53;5069098;28;20492;-79
2024/03/31 09:32:48;;;;;;;27.90;18.10;;;;;;;10.10;100.00;99816.81;5067948;28;20045;-79
2024/03/31 09:35:15;;;;;;;24.48;17.35;;;;;;;10.36;100.00;99803.47;5069344;28;20123;-78
2024/03/31 09:37:41;;;;;;;23.67;16.63;;;;;;;10.35;100.00;99809.78;5068719;28;20102;-79
2024/03/31 09:40:07;;;;;;;24.98;17.45;;;;;;;10.20;100.00;99803.41;5069377;28;20040;-79
2024/03/31 09:42:33;;;;;;;25.60;17.70;;;;;;;10.21;100.00;99808.56;5066484;28;20032;-79
2024/03/31 09:45:01;;;;;;;27.45;17.38;;;;;;;10.16;100.00;99799.38;5069202;28;20392;-78
2024/03/31 09:47:35;;;;;;;24.33;18.08;;;;;;;10.26;100.00;99791.28;5060708;28;20493;-78
2024/03/31 09:50:08;;;;;;;25.17;18.95;;;;;;;10.64;100.00;99789.84;5070588;28;20410;-79
2024/03/31 09:52:34;;;;;;;24.35;18.13;;;;;;;11.03;100.00;99799.88;5070365;28;20448;-80
2024/03/31 09:55:10;;;;;;;22.20;17.65;;;;;;;11.19;100.00;99791.00;5069497;28;20275;-77
2024/03/31 09:57:48;;;;;;;28.35;18.30;;;;;;;11.19;100.00;99782.19;5070775;28;20055;-78
2024/03/31 10:00:15;;;;;;;26.77;18.27;;;;;;;11.11;100.00;99783.06;5071264;28;20040;-79
2024/03/31 10:02:59;;;;;;;27.25;18.92;;;;;;;11.16;100.00;99770.06;5070175;28;20044;-79
2024/03/31 10:05:28;;;;;;;24.80;18.90;;;;;;;11.43;100.00;99773.31;5071031;28;20102;-79
2024/03/31 10:07:57;;;;;;;25.35;17.95;;;;;;;11.93;100.00;99768.69;5070687;28;20127;-79
2024/03/31 10:10:23;;;;;;;25.70;18.63;;;;;;;12.03;100.00;99771.13;5070280;28;20060;-78
2024/03/31 10:12:49;;;;;;;28.15;19.38;;;;;;;11.75;100.00;99777.72;5070715;28;20028;-77
2024/03/31 10:15:15;;;;;;;26.67;18.52;;;;;;;11.70;100.00;99777.41;5069134;28;20346;-78
2024/03/31 10:17:41;;;;;;;29.60;20.98;;;;;;;11.75;100.00;99774.25;5070319;28;20040;-78
2024/03/31 10:20:09;;;;;;;31.95;21.27;;;;;;;11.73;100.00;99763.72;5070494;28;20044;-78
2024/03/31 10:22:35;;;;;;;28.23;22.05;;;;;;;11.98;100.00;99776.97;5070164;28;20044;-78
2024/03/31 10:25:02;;;;;;;28.42;20.73;;;;;;;11.65;100.00;99771.75;5070282;28;20048;-79
2024/03/31 10:27:29;;;;;;;28.52;21.50;;;;;;;11.76;100.00;99774.06;5069859;28;20591;-75
2024/03/31 10:29:55;;;;;;;27.70;21.35;;;;;;;12.02;100.00;99780.97;5069829;28;20459;-78
2024/03/31 10:32:21;;;;;;;26.00;19.85;;;;;;;12.99;100.00;99776.97;5070005;28;20059;-77
2024/03/31 10:34:47;;;;;;;23.40;18.52;;;;;;;13.82;100.00;99780.44;5069561;28;20035;-77
2024/03/31 10:37:13;;;;;;;28.27;19.23;;;;;;;14.24;100.00;99776.22;5068428;28;20020;-79
2024/03/31 10:39:43;;;;;;;20.05;16.85;;;;;;;15.95;100.00;99769.13;5069515;28;20036;-79
2024/03/31 10:42:09;;;;;;;23.02;16.55;;;;;;;16.75;100.00;99766.63;5070109;28;20408;-77
2024/03/31 10:44:34;;;;;;;22.27;15.95;;;;;;;17.21;100.00;99757.75;5069736;28;20472;-78
2024/03/31 10:47:00;;;;;;;22.63;15.27;;;;;;;18.17;100.00;99754.53;5070009;28;20477;-78
2024/03/31 10:49:36;;;;;;;21.75;13.80;;;;;;;18.53;100.00;99755.81;5069264;28;20039;-77
2024/03/31 10:52:02;;;;;;;22.70;13.18;;;;;;;18.83;100.00;99754.09;5078129;28;20072;-77
2024/03/31 10:54:33;;;;;;;17.83;13.80;;;;;;;19.25;100.00;99756.25;5068478;28;20058;-77
2024/03/31 10:57:03;;;;;;;22.67;11.80;;;;;;;19.81;100.00;99746.34;5068612;28;20037;-79
2024/03/31 10:59:30;;;;;;;20.00;11.90;;;;;;;20.21;100.00;99745.00;5067875;28;20041;-81
2024/03/31 11:01:57;;;;;;;14.68;11.38;;;;;;;20.98;100.00;99749.66;5069118;28;20103;-82
2024/03/31 11:04:23;;;;;;;16.42;9.80;;;;;;;21.00;100.00;99752.13;5069243;28;20089;-81
2024/03/31 11:06:51;;;;;;;14.63;10.55;;;;;;;20.84;100.00;99749.06;5068592;28;20121;-79